Airfield :
LOGIN :

Register | Disclaimer

   EN    FR    IT 

 










Legend :    VFR   Marginal VFR   IFR   Intensive IFR   Very Intensive IFR
Visi :
Ceiling :
>= 8 km
>= 3000ft
5 to 8 km
1000 to 3000 ft
1500m to 5 km
500 to 1000 ft
800 to 1500m
200 to 500 ft
< 800m
< 200 ft
Symbols :   Thunderstorms  Fog  Heavy snow  Heavy precipitations  Wind > 20 kt
SIGMETs :     Misc.  Thunderstorms  Icing  Turbulence  Mountain Waves  Volcanic Ashes






- Airport Elevation : 171 ft
- IATA code : EGC


LFBE - Bergerac

CURRENT METAR :
  • 090800Z AUTO VRB02KT CAVOK 24/12 Q1019 NOSIG

EXPIRED METARs :
  • 090730Z AUTO 05003KT CAVOK 22/12 Q1019 NOSIG
  • 090700Z AUTO VRB02KT CAVOK 21/12 Q1019 NOSIG
  • 090630Z AUTO 07002KT CAVOK 18/13 Q1019 NOSIG
  • 090600Z AUTO 08001KT CAVOK 16/13 Q1019 NOSIG

TAF TAF LFBE
Valid from the 09 at 06:00 until the 10 at 06:00 UTC


090500Z 0906/1006 VRB02KT CAVOK
BECMG 0918/0920 03005KT
BECMG 1000/1002 VRB02KT



MET'MAP, your aeronautical weather chart ! - Copyright ORBIFLY December 2007 - Disclaimer

ORBIFLY MET'MAP TEAM :

Programming & Development : Alexandra Zaïnal
Original concept : Baudouin d'Aumeries
Technical & hardware support : Manuel Goepfert
Assistance : Marc-Olivier Méhu




SOURCES & CREDITS :

   NOAA